createdAt,value
2023-04-29T00:01:35.994Z,21.32
2023-04-29T00:04:02.638Z,21.32
2023-04-29T00:06:29.184Z,21.31
2023-04-29T00:08:55.610Z,21.30
2023-04-29T00:11:21.970Z,21.29
2023-04-29T00:13:48.303Z,21.26
2023-04-29T00:16:14.611Z,21.21
2023-04-29T00:18:41.017Z,21.17
2023-04-29T00:21:07.329Z,21.19
2023-04-29T00:23:33.657Z,21.19
2023-04-29T00:26:00.072Z,21.17
2023-04-29T00:28:26.382Z,21.76
2023-04-29T00:30:52.761Z,21.87
2023-04-29T00:33:19.294Z,21.93
2023-04-29T00:35:45.816Z,21.30
2023-04-29T00:38:12.118Z,21.19
2023-04-29T00:40:38.525Z,21.12
2023-04-29T00:43:04.849Z,21.10
2023-04-29T00:45:31.167Z,21.08
2023-04-29T00:47:57.637Z,21.07
2023-04-29T00:50:24.168Z,21.04
2023-04-29T00:52:50.495Z,21.01
2023-04-29T00:55:16.884Z,21.00
2023-04-29T00:57:43.206Z,20.98
2023-04-29T01:00:09.523Z,20.95
2023-04-29T01:02:35.983Z,20.93
2023-04-29T01:05:02.336Z,20.92
2023-04-29T01:07:28.655Z,20.90
2023-04-29T01:09:55.361Z,20.87
2023-04-29T01:12:21.857Z,20.85
2023-04-29T01:14:48.236Z,20.82
2023-04-29T01:17:14.611Z,20.81
2023-04-29T01:19:40.988Z,20.77
2023-04-29T01:22:07.374Z,20.76
2023-04-29T01:24:34.829Z,20.76
2023-04-29T01:27:01.309Z,20.72
2023-04-29T01:29:39.698Z,20.68
2023-04-29T01:32:07.060Z,20.66
2023-04-29T01:34:33.537Z,20.65
2023-04-29T01:37:00.043Z,20.64
2023-04-29T01:39:27.366Z,20.63
2023-04-29T01:42:05.310Z,20.59
2023-04-29T01:44:32.440Z,20.60
2023-04-29T01:46:58.949Z,20.56
2023-04-29T01:49:34.120Z,20.53
2023-04-29T01:52:00.612Z,20.51
2023-04-29T01:54:27.148Z,20.49
2023-04-29T01:56:54.779Z,20.46
2023-04-29T01:59:34.368Z,20.44
2023-04-29T02:02:30.054Z,20.42
2023-04-29T02:05:04.431Z,20.40
2023-04-29T02:07:31.008Z,20.38
2023-04-29T02:09:57.340Z,20.36
2023-04-29T02:12:23.928Z,20.34
2023-04-29T02:14:50.374Z,20.31
2023-04-29T02:17:16.739Z,20.29
2023-04-29T02:19:43.761Z,20.26
2023-04-29T02:22:10.590Z,20.26
2023-04-29T02:24:36.945Z,20.25
2023-04-29T02:27:03.295Z,20.31
2023-04-29T02:29:29.696Z,20.40
2023-04-29T02:31:56.490Z,20.40
2023-04-29T02:34:22.868Z,20.37
2023-04-29T02:36:49.237Z,20.37
2023-04-29T02:39:15.582Z,20.35
2023-04-29T02:41:41.910Z,20.32
2023-04-29T02:44:10.859Z,20.35
2023-04-29T02:46:37.156Z,20.31
2023-04-29T02:49:03.610Z,20.31
2023-04-29T02:51:30.126Z,20.30
2023-04-29T02:53:56.485Z,20.30
2023-04-29T02:56:22.837Z,20.94
2023-04-29T02:58:49.304Z,21.03
2023-04-29T03:01:15.700Z,20.40
2023-04-29T03:03:42.252Z,20.32
2023-04-29T03:06:08.779Z,20.28
2023-04-29T03:08:35.103Z,20.29
2023-04-29T03:11:01.847Z,20.79
2023-04-29T03:13:28.786Z,20.96
2023-04-29T03:15:55.144Z,20.33
2023-04-29T03:18:21.472Z,20.26
2023-04-29T03:20:47.866Z,20.19
2023-04-29T03:23:14.762Z,20.17
2023-04-29T03:25:41.234Z,20.15
2023-04-29T03:28:07.623Z,20.12
2023-04-29T03:30:34.333Z,20.10
2023-04-29T03:33:00.712Z,20.09
2023-04-29T03:35:28.915Z,20.08
2023-04-29T03:38:18.394Z,20.05
2023-04-29T03:40:45.382Z,20.03
2023-04-29T03:43:11.688Z,20.01
2023-04-29T03:45:38.016Z,20.00
2023-04-29T03:48:05.730Z,19.95
2023-04-29T03:50:32.115Z,19.94
2023-04-29T03:52:58.441Z,19.94
2023-04-29T03:55:24.935Z,19.92
2023-04-29T03:57:51.540Z,19.86
2023-04-29T04:00:18.855Z,19.73
2023-04-29T04:02:49.855Z,19.77
2023-04-29T04:05:16.544Z,19.78
2023-04-29T04:07:48.344Z,19.75
2023-04-29T04:10:33.318Z,19.69
2023-04-29T04:13:02.204Z,19.69
2023-04-29T04:15:28.605Z,19.72
2023-04-29T04:17:55.587Z,19.68
2023-04-29T04:20:21.960Z,19.66
2023-04-29T04:22:49.475Z,19.64
2023-04-29T04:25:23.553Z,19.65
2023-04-29T04:27:50.892Z,19.53
2023-04-29T04:30:29.364Z,19.55
2023-04-29T04:32:55.692Z,19.45
2023-04-29T04:35:22.092Z,19.41
2023-04-29T04:37:48.687Z,19.46
2023-04-29T04:40:14.995Z,19.51
2023-04-29T04:43:01.334Z,19.48
2023-04-29T04:45:27.910Z,19.48
2023-04-29T04:47:54.346Z,19.44
2023-04-29T04:50:23.080Z,19.45
2023-04-29T04:52:51.435Z,19.43
2023-04-29T04:55:37.782Z,19.45
2023-04-29T04:58:04.247Z,19.42
2023-04-29T05:00:30.667Z,19.42
2023-04-29T05:02:57.294Z,19.42
2023-04-29T05:05:23.828Z,19.41
2023-04-29T05:07:50.950Z,19.39
2023-04-29T05:10:20.532Z,19.42
2023-04-29T05:12:51.802Z,19.39
2023-04-29T05:15:19.330Z,19.41
2023-04-29T05:17:48.405Z,19.41
2023-04-29T05:20:14.831Z,19.45
2023-04-29T05:22:41.187Z,19.43
2023-04-29T05:25:07.583Z,19.44
2023-04-29T05:27:35.516Z,19.43
2023-04-29T05:30:03.972Z,19.42
2023-04-29T05:32:30.364Z,19.42
2023-04-29T05:34:56.897Z,19.43
2023-04-29T05:37:23.251Z,19.42
2023-04-29T05:40:12.415Z,19.42
2023-04-29T05:42:39.408Z,19.41
2023-04-29T05:45:05.767Z,19.40
2023-04-29T05:47:32.612Z,19.39
2023-04-29T05:49:59.088Z,19.38
2023-04-29T05:52:25.742Z,19.37
2023-04-29T05:54:52.876Z,19.36
2023-04-29T05:57:19.210Z,19.33
2023-04-29T05:59:45.573Z,19.30
2023-04-29T06:02:12.216Z,19.30
2023-04-29T06:04:40.446Z,19.31
2023-04-29T06:07:34.576Z,19.28
2023-04-29T06:10:08.343Z,19.29
2023-04-29T06:12:34.977Z,19.28
2023-04-29T06:15:01.344Z,19.28
2023-04-29T06:17:27.913Z,19.28
2023-04-29T06:19:54.482Z,19.26
2023-04-29T06:22:20.988Z,19.26
2023-04-29T06:24:50.337Z,19.26
2023-04-29T06:27:25.455Z,19.24
2023-04-29T06:29:52.318Z,19.25
2023-04-29T06:32:18.753Z,19.24
2023-04-29T06:34:46.244Z,19.24
2023-04-29T06:37:37.068Z,19.22
2023-04-29T06:40:17.492Z,19.21
2023-04-29T06:43:19.243Z,19.21
2023-04-29T06:45:45.725Z,19.22
2023-04-29T06:48:41.430Z,19.24
2023-04-29T06:51:07.952Z,19.00
2023-04-29T06:53:36.553Z,19.25
2023-04-29T06:56:03.174Z,19.28
2023-04-29T06:58:29.829Z,19.30
2023-04-29T07:00:56.198Z,19.32
2023-04-29T07:03:22.743Z,19.25
2023-04-29T07:05:50.252Z,19.35
2023-04-29T07:08:16.570Z,19.37
2023-04-29T07:10:42.898Z,19.39
2023-04-29T07:13:09.457Z,19.41
2023-04-29T07:15:35.859Z,19.44
2023-04-29T07:18:02.782Z,19.46
2023-04-29T07:20:29.366Z,19.49
2023-04-29T07:22:55.749Z,19.50
2023-04-29T07:25:22.082Z,19.54
2023-04-29T07:27:48.428Z,19.58
2023-04-29T07:30:14.970Z,19.60
2023-04-29T07:32:41.383Z,19.62
2023-04-29T07:35:07.749Z,19.64
2023-04-29T07:37:35.586Z,19.71
2023-04-29T07:40:03.576Z,19.75
2023-04-29T07:42:30.185Z,19.78
2023-04-29T07:44:58.544Z,19.83
2023-04-29T07:47:24.896Z,19.86
2023-04-29T07:49:51.398Z,19.88
2023-04-29T07:52:17.881Z,19.90
2023-04-29T07:54:44.343Z,19.93
2023-04-29T07:57:10.835Z,19.95
2023-04-29T07:59:37.269Z,19.99
2023-04-29T08:02:03.688Z,20.04
2023-04-29T08:04:30.507Z,20.08
2023-04-29T08:07:05.124Z,20.12
2023-04-29T08:09:31.517Z,20.14
2023-04-29T08:11:57.933Z,20.18
2023-04-29T08:14:24.240Z,20.22
2023-04-29T08:16:50.656Z,20.25
2023-04-29T08:19:17.027Z,20.30
2023-04-29T08:21:43.400Z,20.34
2023-04-29T08:24:09.898Z,20.35
2023-04-29T08:26:36.428Z,20.37
2023-04-29T08:29:02.902Z,20.40
2023-04-29T08:31:29.490Z,20.40
2023-04-29T08:33:55.919Z,20.44
2023-04-29T08:36:22.253Z,20.43
2023-04-29T08:38:48.647Z,20.45
2023-04-29T08:41:14.964Z,20.52
2023-04-29T08:43:41.350Z,20.54
2023-04-29T08:46:07.791Z,20.59
2023-04-29T08:48:34.265Z,20.61
2023-04-29T08:51:00.659Z,20.64
2023-04-29T08:53:27.030Z,20.67
2023-04-29T08:55:53.321Z,20.70
2023-04-29T08:58:19.618Z,20.71
2023-04-29T09:00:46.006Z,20.74
2023-04-29T09:03:12.403Z,20.77
2023-04-29T09:05:38.786Z,20.79
2023-04-29T09:08:05.150Z,20.81
2023-04-29T09:10:31.476Z,20.83
2023-04-29T09:12:57.828Z,20.87
2023-04-29T09:15:24.185Z,20.89
2023-04-29T09:17:50.553Z,20.91
2023-04-29T09:20:16.935Z,20.91
2023-04-29T09:22:43.336Z,20.92
2023-04-29T09:25:09.675Z,21.00
2023-04-29T09:27:35.996Z,21.03
2023-04-29T09:30:02.458Z,21.05
2023-04-29T09:32:28.857Z,21.06
2023-04-29T09:34:55.428Z,21.09
2023-04-29T09:37:21.911Z,21.10
2023-04-29T09:39:48.295Z,21.09
2023-04-29T09:42:14.960Z,21.16
2023-04-29T09:44:41.665Z,21.17
2023-04-29T09:47:07.983Z,21.20
2023-04-29T09:49:34.306Z,21.20
2023-04-29T09:52:00.671Z,21.23
2023-04-29T09:54:27.011Z,21.24
2023-04-29T09:56:53.344Z,21.25
2023-04-29T09:59:19.721Z,21.25
2023-04-29T10:01:46.073Z,21.28
2023-04-29T10:04:12.494Z,21.28
2023-04-29T10:06:38.949Z,21.30
2023-04-29T10:09:05.371Z,21.30
2023-04-29T10:11:31.764Z,21.31
2023-04-29T10:13:58.363Z,21.32
2023-04-29T10:16:24.806Z,21.33
2023-04-29T10:18:51.213Z,21.32
2023-04-29T10:21:17.635Z,21.31
2023-04-29T10:23:43.943Z,21.31
2023-04-29T10:26:10.269Z,21.33
2023-04-29T10:28:36.625Z,21.33
2023-04-29T10:31:02.984Z,21.32
2023-04-29T10:33:29.420Z,21.31
2023-04-29T10:35:55.826Z,21.32
2023-04-29T10:38:22.219Z,21.32
2023-04-29T10:40:48.594Z,21.32
2023-04-29T10:43:14.957Z,21.30
2023-04-29T10:45:41.260Z,21.29
2023-04-29T10:48:07.572Z,21.29
2023-04-29T10:50:33.946Z,21.28
2023-04-29T10:53:00.287Z,21.31
2023-04-29T10:55:26.625Z,21.30
2023-04-29T10:57:52.976Z,21.30
2023-04-29T11:00:19.425Z,21.30
2023-04-29T11:02:45.934Z,21.29
2023-04-29T11:05:12.546Z,21.29
2023-04-29T11:07:39.187Z,21.27
2023-04-29T11:10:05.557Z,21.27
2023-04-29T11:12:32.011Z,21.27
2023-04-29T11:14:58.425Z,21.25
2023-04-29T11:17:26.050Z,21.24
2023-04-29T11:19:53.886Z,21.22
2023-04-29T11:22:20.378Z,21.21
2023-04-29T11:24:46.848Z,21.21
2023-04-29T11:27:13.211Z,21.19
2023-04-29T11:29:39.522Z,21.22
2023-04-29T11:32:06.119Z,21.20
2023-04-29T11:34:32.727Z,21.17
2023-04-29T11:36:59.508Z,21.18
2023-04-29T11:39:25.978Z,21.20
2023-04-29T11:41:52.771Z,21.19
2023-04-29T11:44:19.254Z,21.19
2023-04-29T11:46:45.565Z,21.19
2023-04-29T11:49:11.916Z,21.18
2023-04-29T11:51:38.245Z,21.19
2023-04-29T11:54:05.519Z,21.20
2023-04-29T11:56:33.298Z,21.20
2023-04-29T11:58:59.760Z,21.17
2023-04-29T12:01:26.114Z,21.19
2023-04-29T12:03:52.595Z,21.26
2023-04-29T12:06:19.180Z,21.38
2023-04-29T12:08:45.510Z,21.45
2023-04-29T12:11:11.880Z,21.38
2023-04-29T12:13:38.205Z,21.22
2023-04-29T12:16:04.584Z,21.20
2023-04-29T12:18:30.987Z,21.18
2023-04-29T12:20:57.325Z,21.17
2023-04-29T12:23:23.648Z,21.23
2023-04-29T12:25:50.017Z,21.27
2023-04-29T12:28:16.318Z,21.27
2023-04-29T12:30:42.648Z,21.32
2023-04-29T12:33:09.104Z,21.35
2023-04-29T12:35:35.562Z,21.41
2023-04-29T12:38:01.885Z,21.43
2023-04-29T12:40:30.206Z,21.47
2023-04-29T12:42:56.733Z,21.52
2023-04-29T12:45:23.049Z,21.56
2023-04-29T12:47:49.524Z,21.61
2023-04-29T12:50:15.987Z,21.64
2023-04-29T12:52:42.302Z,21.68
2023-04-29T12:55:08.677Z,21.73
2023-04-29T12:57:34.981Z,21.76
2023-04-29T13:00:01.306Z,21.80
2023-04-29T13:02:27.867Z,21.86
2023-04-29T13:04:54.649Z,21.89
2023-04-29T13:07:21.105Z,21.94
2023-04-29T13:09:47.460Z,21.98
2023-04-29T13:12:13.799Z,22.14
2023-04-29T13:14:40.124Z,22.20
2023-04-29T13:17:06.545Z,22.22
2023-04-29T13:19:49.788Z,22.20
2023-04-29T13:22:17.330Z,22.24
2023-04-29T13:24:43.650Z,22.37
2023-04-29T13:27:09.973Z,22.44
2023-04-29T13:29:36.375Z,22.44
2023-04-29T13:32:02.763Z,22.39
2023-04-29T13:34:29.193Z,22.39
2023-04-29T13:36:55.562Z,22.43
2023-04-29T13:39:22.915Z,22.46
2023-04-29T13:41:49.495Z,22.49
2023-04-29T13:44:27.370Z,22.55
2023-04-29T13:46:57.256Z,22.73
2023-04-29T13:49:55.739Z,22.77
2023-04-29T13:54:59.063Z,22.83
2023-04-29T13:59:55.001Z,22.79
2023-04-29T14:02:25.459Z,22.83
2023-04-29T14:04:52.442Z,22.86
2023-04-29T14:07:19.096Z,22.99
2023-04-29T14:09:45.424Z,23.04
2023-04-29T14:12:11.788Z,23.06
2023-04-29T14:14:38.143Z,23.14
2023-04-29T14:17:04.449Z,23.17
2023-04-29T14:19:30.780Z,23.13
2023-04-29T14:21:57.197Z,23.12
2023-04-29T14:24:23.673Z,23.17
2023-04-29T14:26:50.044Z,23.32
2023-04-29T14:29:16.408Z,23.38
2023-04-29T14:31:42.911Z,23.43
2023-04-29T14:34:09.336Z,23.45
2023-04-29T14:36:35.754Z,23.52
2023-04-29T14:39:02.361Z,23.55
2023-04-29T14:41:28.899Z,23.55
2023-04-29T14:43:55.283Z,23.57
2023-04-29T14:46:21.655Z,23.61
2023-04-29T14:48:48.037Z,23.63
2023-04-29T14:51:14.441Z,23.67
2023-04-29T14:53:40.791Z,23.72
2023-04-29T14:56:07.232Z,23.73
2023-04-29T14:58:33.601Z,23.77
2023-04-29T15:00:59.958Z,23.79
2023-04-29T15:03:26.311Z,23.81
2023-04-29T15:05:52.968Z,23.83
2023-04-29T15:08:19.410Z,23.84
2023-04-29T15:10:45.753Z,23.86
2023-04-29T15:13:12.115Z,23.86
2023-04-29T15:15:38.416Z,23.86
2023-04-29T15:18:04.753Z,23.88
2023-04-29T15:20:31.154Z,23.88
2023-04-29T15:22:57.477Z,23.88
2023-04-29T15:25:25.500Z,23.92
2023-04-29T15:27:53.818Z,23.92
2023-04-29T15:30:20.139Z,23.90
2023-04-29T15:32:46.468Z,23.90
2023-04-29T15:35:13.114Z,23.91
2023-04-29T15:37:39.496Z,23.88
2023-04-29T15:40:05.841Z,23.78
2023-04-29T15:42:32.210Z,23.73
2023-04-29T15:44:58.530Z,23.68
2023-04-29T15:47:24.895Z,23.78
2023-04-29T15:49:51.875Z,23.79
2023-04-29T15:52:18.809Z,23.75
2023-04-29T15:54:45.135Z,23.76
2023-04-29T15:57:11.582Z,23.76
2023-04-29T15:59:37.923Z,23.78
2023-04-29T16:02:04.228Z,24.40
2023-04-29T16:04:30.605Z,23.89
2023-04-29T16:06:56.904Z,23.78
2023-04-29T16:09:23.221Z,23.74
2023-04-29T16:11:49.610Z,23.72
2023-04-29T16:14:15.957Z,23.72
2023-04-29T16:16:42.324Z,23.70
2023-04-29T16:19:08.732Z,23.67
2023-04-29T16:21:35.045Z,23.65
2023-04-29T16:24:01.585Z,23.63
2023-04-29T16:26:27.978Z,23.64
2023-04-29T16:28:54.304Z,23.62
2023-04-29T16:31:20.677Z,23.59
2023-04-29T16:33:47.082Z,23.58
2023-04-29T16:36:13.395Z,23.54
2023-04-29T16:38:39.702Z,23.53
2023-04-29T16:41:06.106Z,23.51
2023-04-29T16:43:32.414Z,23.49
2023-04-29T16:45:58.756Z,23.48
2023-04-29T16:48:25.135Z,23.45
2023-04-29T16:50:51.455Z,23.41
2023-04-29T16:53:17.808Z,23.38
2023-04-29T16:55:44.168Z,23.40
2023-04-29T16:58:10.506Z,23.41
2023-04-29T17:00:36.808Z,23.38
2023-04-29T17:03:03.177Z,23.37
2023-04-29T17:05:29.499Z,23.36
2023-04-29T17:07:55.810Z,23.35
2023-04-29T17:10:22.156Z,23.35
2023-04-29T17:12:48.494Z,23.34
2023-04-29T17:15:14.833Z,23.31
2023-04-29T17:17:41.255Z,23.29
2023-04-29T17:20:07.563Z,23.27
2023-04-29T17:22:33.929Z,23.27
2023-04-29T17:25:00.273Z,23.25
2023-04-29T17:27:26.611Z,23.23
2023-04-29T17:29:53.056Z,23.20
2023-04-29T17:32:19.607Z,23.19
2023-04-29T17:34:45.940Z,23.16
2023-04-29T17:37:12.295Z,23.12
2023-04-29T17:39:38.668Z,23.10
2023-04-29T17:42:05.009Z,23.10
2023-04-29T17:44:31.326Z,23.08
2023-04-29T17:46:57.683Z,23.07
2023-04-29T17:49:24.007Z,23.02
2023-04-29T17:51:50.357Z,22.99
2023-04-29T17:54:16.759Z,22.97
2023-04-29T17:56:43.179Z,22.94
2023-04-29T17:59:09.554Z,22.94
2023-04-29T18:01:36.114Z,22.91
2023-04-29T18:04:02.587Z,22.86
2023-04-29T18:06:28.973Z,22.82
2023-04-29T18:08:55.351Z,22.81
2023-04-29T18:11:21.658Z,22.78
2023-04-29T18:13:47.968Z,22.65
2023-04-29T18:16:14.345Z,22.69
2023-04-29T18:18:40.709Z,22.66
2023-04-29T18:21:07.065Z,22.63
2023-04-29T18:23:33.509Z,22.64
2023-04-29T18:25:59.814Z,22.60
2023-04-29T18:28:26.127Z,22.58
2023-04-29T18:30:52.567Z,22.55
2023-04-29T18:33:18.979Z,22.51
2023-04-29T18:35:45.434Z,22.46
2023-04-29T18:38:11.796Z,22.44
2023-04-29T18:40:38.133Z,22.43
2023-04-29T18:43:04.456Z,22.42
2023-04-29T18:45:30.840Z,22.38
2023-04-29T18:47:57.175Z,22.34
2023-04-29T18:50:23.531Z,22.32
2023-04-29T18:52:49.890Z,22.25
2023-04-29T18:55:16.211Z,22.24
2023-04-29T18:57:42.529Z,22.18
2023-04-29T19:00:08.889Z,22.14
2023-04-29T19:02:35.251Z,22.20
2023-04-29T19:05:01.711Z,22.16
2023-04-29T19:07:28.169Z,22.10
2023-04-29T19:09:54.686Z,22.07
2023-04-29T19:12:21.163Z,22.08
2023-04-29T19:14:47.574Z,21.98
2023-04-29T19:17:13.901Z,21.96
2023-04-29T19:19:40.208Z,22.02
2023-04-29T19:22:06.573Z,21.96
2023-04-29T19:24:32.907Z,21.94
2023-04-29T19:26:59.217Z,21.97
2023-04-29T19:29:25.611Z,21.84
2023-04-29T19:31:52.154Z,21.85
2023-04-29T19:34:18.808Z,21.84
2023-04-29T19:36:45.167Z,21.82
2023-04-29T19:39:11.538Z,21.81
2023-04-29T19:41:37.947Z,21.76
2023-04-29T19:44:04.328Z,21.74
2023-04-29T19:46:30.722Z,21.78
2023-04-29T19:48:57.077Z,21.67
2023-04-29T19:51:23.450Z,21.72
2023-04-29T19:53:49.788Z,21.71
2023-04-29T19:56:16.114Z,21.70
2023-04-29T19:58:42.505Z,21.63
2023-04-29T20:01:08.862Z,21.66
2023-04-29T20:03:35.197Z,21.64
2023-04-29T20:06:01.593Z,21.66
2023-04-29T20:08:27.924Z,21.65
2023-04-29T20:10:54.247Z,21.62
2023-04-29T20:13:20.635Z,21.62
2023-04-29T20:15:46.966Z,21.59
2023-04-29T20:18:13.276Z,21.57
2023-04-29T20:20:39.653Z,21.55
2023-04-29T20:23:05.985Z,21.55
2023-04-29T20:25:32.298Z,21.52
2023-04-29T20:27:58.738Z,21.36
2023-04-29T20:30:25.073Z,21.44
2023-04-29T20:32:51.495Z,21.31
2023-04-29T20:35:17.892Z,21.28
2023-04-29T20:37:44.215Z,21.35
2023-04-29T20:40:10.545Z,21.29
2023-04-29T20:42:36.904Z,21.31
2023-04-29T20:45:03.210Z,21.31
2023-04-29T20:47:29.567Z,21.21
2023-04-29T20:49:56.131Z,21.29
2023-04-29T20:52:22.664Z,21.27
2023-04-29T20:54:49.008Z,21.27
2023-04-29T20:57:15.381Z,21.23
2023-04-29T20:59:41.683Z,21.20
2023-04-29T21:02:07.992Z,21.08
2023-04-29T21:04:34.390Z,21.12
2023-04-29T21:07:00.758Z,21.08
2023-04-29T21:09:27.126Z,20.94
2023-04-29T21:11:53.541Z,20.91
2023-04-29T21:14:19.877Z,20.98
2023-04-29T21:16:46.204Z,20.89
2023-04-29T21:19:12.603Z,20.97
2023-04-29T21:21:38.914Z,20.85
2023-04-29T21:24:05.223Z,20.95
2023-04-29T21:26:31.620Z,20.92
2023-04-29T21:28:57.971Z,20.87
2023-04-29T21:31:24.324Z,20.85
2023-04-29T21:33:50.765Z,20.83
2023-04-29T21:36:17.096Z,21.35
2023-04-29T21:38:43.418Z,21.62
2023-04-29T21:41:09.845Z,21.61
2023-04-29T21:43:36.180Z,21.50
2023-04-29T21:46:02.497Z,21.54
2023-04-29T21:48:28.849Z,21.60
2023-04-29T21:50:55.151Z,21.58
2023-04-29T21:53:21.481Z,21.58
2023-04-29T21:55:47.849Z,21.61
2023-04-29T21:58:14.167Z,21.53
2023-04-29T22:00:40.588Z,20.90
2023-04-29T22:03:07.034Z,20.75
2023-04-29T22:05:33.414Z,20.82
2023-04-29T22:07:59.722Z,20.68
2023-04-29T22:10:26.110Z,20.64
2023-04-29T22:12:52.433Z,20.55
2023-04-29T22:15:28.249Z,20.50
2023-04-29T22:17:55.846Z,20.57
2023-04-29T22:20:22.182Z,20.57
2023-04-29T22:22:48.505Z,20.55
2023-04-29T22:25:14.966Z,20.49
2023-04-29T22:27:41.369Z,20.52
2023-04-29T22:30:07.698Z,20.52
2023-04-29T22:32:34.131Z,20.50
2023-04-29T22:35:00.848Z,20.49
2023-04-29T22:37:27.312Z,20.46
2023-04-29T22:39:53.977Z,20.43
2023-04-29T22:42:20.454Z,20.41
2023-04-29T22:44:46.782Z,20.41
2023-04-29T22:47:13.141Z,20.38
2023-04-29T22:49:39.464Z,20.35
2023-04-29T22:52:05.789Z,20.34
2023-04-29T22:54:32.155Z,20.32
2023-04-29T22:56:58.464Z,20.31
2023-04-29T22:59:24.779Z,20.27
2023-04-29T23:01:51.210Z,20.24
2023-04-29T23:04:17.602Z,20.21
2023-04-29T23:06:43.997Z,20.20
2023-04-29T23:09:10.387Z,20.17
2023-04-29T23:11:36.720Z,20.16
2023-04-29T23:14:03.020Z,20.12
2023-04-29T23:16:29.406Z,20.10
2023-04-29T23:18:55.771Z,20.07
2023-04-29T23:21:22.088Z,20.03
2023-04-29T23:23:48.430Z,20.02
2023-04-29T23:26:14.741Z,19.99
2023-04-29T23:28:41.103Z,19.97
2023-04-29T23:31:07.559Z,19.94
2023-04-29T23:33:33.983Z,19.91
2023-04-29T23:36:00.308Z,19.90
2023-04-29T23:38:26.680Z,19.84
2023-04-29T23:40:52.991Z,19.85
2023-04-29T23:43:19.338Z,19.83
2023-04-29T23:45:45.957Z,19.81
2023-04-29T23:48:12.387Z,19.81
2023-04-29T23:50:38.684Z,19.78
2023-04-29T23:53:05.044Z,19.75
2023-04-29T23:55:31.366Z,19.74
2023-04-29T23:57:57.701Z,19.76
